Time;durP1;ratioP1;P1;durP2;ratioP2;P2;SDS_P1;SDS_P2;PMS_P1;PMS_P2;Temp;Humidity;BMP_temperature;BMP_pressure;BME280_temperature;BME280_humidity;BME280_pressure;Samples;Min_cycle;Max_cycle;Signal;HPM_P1;HPM_P2
2022/11/21 00:02:23;;;;;;;93.85;20.50;;;-3273.70;98.30;;;;;;5004943;28;20049;-73
2022/11/21 00:04:48;;;;;;;87.38;17.83;;;-3273.80;98.30;;;;;;5006335;28;20495;-73
2022/11/21 00:07:13;;;;;;;75.50;18.23;;;-3273.80;98.30;;;;;;5006549;28;20132;-74
2022/11/21 00:09:39;;;;;;;106.38;18.45;;;-3273.80;98.40;;;;;;5008305;28;20030;-74
2022/11/21 00:12:05;;;;;;;83.60;18.80;;;-3273.80;98.30;;;;;;5005412;28;20430;-74
2022/11/21 00:14:32;;;;;;;74.30;19.08;;;-3273.80;98.40;;;;;;5006246;28;20037;-73
2022/11/21 00:16:57;;;;;;;107.68;17.27;;;-3273.70;98.20;;;;;;5009373;28;20041;-74
2022/11/21 00:19:23;;;;;;;130.77;18.42;;;-3273.70;98.20;;;;;;5006195;28;20144;-73
2022/11/21 00:21:48;;;;;;;126.30;18.73;;;-3273.70;98.20;;;;;;5007754;28;20072;-73
2022/11/21 00:24:14;;;;;;;102.68;15.93;;;-3273.60;98.20;;;;;;5006645;28;20042;-74
2022/11/21 00:26:39;;;;;;;79.60;16.63;;;-3273.50;98.10;;;;;;5005839;28;20042;-74
2022/11/21 00:29:05;;;;;;;96.18;17.38;;;-3273.50;98.20;;;;;;5002514;28;20432;-74
2022/11/21 00:31:30;;;;;;;121.43;17.48;;;-3273.50;98.10;;;;;;4989475;28;20096;-73
2022/11/21 00:33:56;;;;;;;83.50;16.35;;;-3273.50;98.20;;;;;;4991753;28;20035;-73
2022/11/21 00:36:21;;;;;;;49.55;15.65;;;-3273.50;98.20;;;;;;5004546;28;20140;-73
2022/11/21 00:38:47;;;;;;;75.18;16.13;;;-3273.60;98.20;;;;;;5012482;28;20121;-72
2022/11/21 00:41:12;;;;;;;105.32;15.80;;;-3273.50;98.20;;;;;;5001122;28;20038;-73
2022/11/21 00:43:38;;;;;;;82.68;16.27;;;-3273.50;98.20;;;;;;5003949;28;20116;-74
2022/11/21 00:46:03;;;;;;;102.30;15.65;;;-3273.60;98.30;;;;;;4998645;28;20504;-74
2022/11/21 00:48:30;;;;;;;73.70;14.20;;;-3273.40;98.00;;;;;;5006425;28;20133;-74
2022/11/21 00:50:55;;;;;;;60.63;14.93;;;-3273.30;98.00;;;;;;5002842;28;20100;-73
2022/11/21 00:53:21;;;;;;;76.80;17.27;;;-3273.40;98.20;;;;;;5004167;28;20117;-73
2022/11/21 00:55:46;;;;;;;54.42;13.50;;;-3273.40;98.20;;;;;;5005895;28;20057;-73
2022/11/21 00:58:12;;;;;;;34.17;13.23;;;-3273.50;98.30;;;;;;4993362;28;20061;-74
2022/11/21 01:00:37;;;;;;;55.20;14.55;;;-3273.50;98.30;;;;;;4989407;28;20184;-73
2022/11/21 01:03:02;;;;;;;47.42;16.20;;;-3273.50;98.30;;;;;;5006012;28;20037;-73
2022/11/21 01:05:31;;;;;;;36.85;15.45;;;-3273.60;98.40;;;;;;5005389;28;20394;-73
2022/11/21 01:07:57;;;;;;;40.00;13.57;;;-3273.60;98.30;;;;;;5007901;28;20030;-73
2022/11/21 01:10:22;;;;;;;51.15;14.88;;;-3273.60;98.30;;;;;;4985543;28;20040;-73
2022/11/21 01:12:48;;;;;;;32.38;14.27;;;-3273.60;98.20;;;;;;5005417;28;20140;-74
2022/11/21 01:15:14;;;;;;;35.67;15.20;;;-3273.60;98.20;;;;;;5003625;28;20127;-74
2022/11/21 01:17:40;;;;;;;45.35;15.25;;;-3273.70;98.40;;;;;;5008476;28;20040;-73
2022/11/21 01:20:06;;;;;;;36.75;16.20;;;-3273.80;98.50;;;;;;5003249;28;20420;-73
2022/11/21 01:22:32;;;;;;;45.88;16.15;;;-3273.80;98.40;;;;;;5003442;28;20050;-73
2022/11/21 01:24:57;;;;;;;35.10;15.27;;;-3273.70;98.20;;;;;;5005997;28;20063;-73
2022/11/21 01:27:23;;;;;;;38.30;16.00;;;-3273.80;98.20;;;;;;4988090;28;20084;-73
2022/11/21 01:29:48;;;;;;;34.33;16.20;;;-3273.80;98.30;;;;;;5007779;28;20113;-73
2022/11/21 01:32:14;;;;;;;41.35;16.35;;;-3273.90;98.40;;;;;;5005896;28;20034;-74
2022/11/21 01:34:39;;;;;;;32.47;15.77;;;-3273.90;98.30;;;;;;5002410;28;20038;-73
2022/11/21 01:37:05;;;;;;;38.45;16.25;;;-3273.90;98.30;;;;;;4999835;28;20042;-73
2022/11/21 01:39:30;;;;;;;35.35;16.75;;;-3273.90;98.30;;;;;;5003601;28;20042;-73
2022/11/21 01:41:56;;;;;;;45.33;17.00;;;-3274.00;98.30;;;;;;5006919;28;20042;-73
2022/11/21 01:44:24;;;;;;;42.00;15.93;;;-3274.00;98.40;;;;;;4987882;28;21239;-73
2022/11/21 01:46:50;;;;;;;38.55;16.60;;;-3274.00;98.30;;;;;;5006064;28;20034;-74
2022/11/21 01:49:21;;;;;;;36.85;16.42;;;-3274.10;98.30;;;;;;5003913;28;20388;-73
2022/11/21 01:52:25;;;;;;;43.00;17.30;;;-3274.00;98.10;;;;;;5013930;28;20029;-73
2022/11/21 01:54:54;;;;;;;44.58;15.98;;;-3274.00;98.10;;;;;;5003193;28;20026;-73
2022/11/21 01:57:31;;;;;;;39.53;16.67;;;-3274.00;98.20;;;;;;5014989;28;20029;-74
2022/11/21 02:00:04;;;;;;;45.40;16.70;;;-3274.10;98.20;;;;;;5004975;28;20107;-73
2022/11/21 02:02:34;;;;;;;39.55;16.35;;;-3274.10;98.20;;;;;;5004782;28;20049;-75
2022/11/21 02:05:01;;;;;;;45.17;17.38;;;-3274.10;98.30;;;;;;5010754;28;20037;-73
2022/11/21 02:07:32;;;;;;;36.90;17.75;;;-3274.20;98.30;;;;;;5018733;28;20081;-74
2022/11/21 02:10:00;;;;;;;48.33;17.17;;;-3274.30;98.40;;;;;;5004194;28;20057;-73
2022/11/21 02:12:34;;;;;;;46.15;15.90;;;-3274.20;98.30;;;;;;5008076;28;20034;-73
2022/11/21 02:15:00;;;;;;;39.25;16.98;;;-3274.20;98.20;;;;;;5007841;28;20041;-74
2022/11/21 02:17:28;;;;;;;44.92;16.45;;;-3274.20;98.30;;;;;;5009740;28;20041;-74
2022/11/21 02:19:59;;;;;;;42.13;16.23;;;-3274.30;98.50;;;;;;5008037;28;20172;-74
2022/11/21 02:22:39;;;;;;;54.20;18.15;;;-3274.30;98.30;;;;;;5011674;28;20049;-73
2022/11/21 02:25:28;;;;;;;51.92;16.98;;;-3274.30;98.40;;;;;;5009792;28;20121;-73
2022/11/21 02:28:04;;;;;;;68.20;18.50;;;-3274.40;98.50;;;;;;4996803;28;20148;-74
2022/11/21 02:30:33;;;;;;;69.60;18.23;;;-3274.50;98.60;;;;;;5004389;28;20125;-73
2022/11/21 02:32:58;;;;;;;55.22;17.23;;;-3274.60;98.60;;;;;;5000133;28;20172;-73
2022/11/21 02:35:24;;;;;;;51.58;17.08;;;-3274.50;98.50;;;;;;5007916;28;20105;-73
2022/11/21 02:37:59;;;;;;;48.47;18.80;;;-3274.50;98.60;;;;;;5009081;28;20041;-73
2022/11/21 02:40:30;;;;;;;55.33;17.83;;;-3274.60;98.80;;;;;;5009407;28;20336;-74
2022/11/21 02:42:59;;;;;;;;;;;-3274.60;98.70;;;;;;5007679;28;20096;-73
2022/11/21 02:45:30;;;;;;;65.30;16.98;;;-3274.70;98.80;;;;;;5002149;28;20015;-73
2022/11/21 02:47:56;;;;;;;61.17;16.73;;;-3274.70;98.70;;;;;;5008036;28;20128;-74
2022/11/21 02:50:26;;;;;;;54.10;17.20;;;-3274.60;98.70;;;;;;5009375;28;20117;-73
2022/11/21 02:52:51;;;;;;;41.13;16.00;;;-3274.60;98.60;;;;;;5011751;28;20170;-74
2022/11/21 02:55:17;;;;;;;63.05;17.02;;;-3274.60;98.70;;;;;;5022538;28;20470;-73
2022/11/21 02:57:42;;;;;;;53.88;18.02;;;-3274.60;98.80;;;;;;5008297;28;20046;-74
2022/11/21 03:00:10;;;;;;;54.50;17.65;;;-3274.60;98.80;;;;;;5013246;28;20132;-74
2022/11/21 03:02:36;;;;;;;50.22;17.50;;;-3274.70;98.80;;;;;;5007795;28;20091;-74
2022/11/21 03:05:03;;;;;;;33.08;16.13;;;-3274.60;98.70;;;;;;5010824;28;20042;-74
2022/11/21 03:07:29;;;;;;;39.22;15.88;;;-3274.50;98.70;;;;;;5009258;28;20101;-74
2022/11/21 03:09:54;;;;;;;58.50;17.92;;;-3274.50;98.70;;;;;;5008190;28;20041;-74
2022/11/21 03:12:20;;;;;;;59.33;17.35;;;-3274.40;98.60;;;;;;5009266;28;20049;-73
2022/11/21 03:14:45;;;;;;;39.45;18.15;;;-3274.40;98.80;;;;;;5002447;28;20083;-73
2022/11/21 03:17:11;;;;;;;62.55;18.55;;;-3274.40;98.80;;;;;;5006128;28;20379;-73
2022/11/21 03:19:36;;;;;;;45.22;16.73;;;-3274.40;98.80;;;;;;5008031;28;20151;-73
2022/11/21 03:22:02;;;;;;;58.45;17.80;;;-3274.50;98.90;;;;;;5002384;28;20122;-74
2022/11/21 03:24:27;;;;;;;51.28;16.80;;;-3274.40;98.80;;;;;;5008370;28;20040;-73
2022/11/21 03:26:53;;;;;;;43.60;18.23;;;-3274.40;98.80;;;;;;5008364;28;20036;-74
2022/11/21 03:29:18;;;;;;;50.67;17.48;;;-3274.40;98.80;;;;;;5008286;28;20529;-73
2022/11/21 03:31:43;;;;;;;48.85;18.95;;;-3274.50;98.90;;;;;;5008197;28;20025;-73
2022/11/21 03:34:09;;;;;;;51.85;16.67;;;-3274.50;98.90;;;;;;5009151;28;20106;-73
2022/11/21 03:36:35;;;;;;;59.47;16.55;;;-3274.40;98.70;;;;;;5011286;28;20045;-73
2022/11/21 03:39:00;;;;;;;38.63;16.90;;;-3274.40;98.80;;;;;;5006328;28;20407;-73
2022/11/21 03:41:29;;;;;;;57.58;17.33;;;-3274.40;98.90;;;;;;5008773;28;20058;-73
2022/11/21 03:43:55;;;;;;;66.70;17.77;;;-3274.30;98.70;;;;;;5006482;28;20113;-73
2022/11/21 03:46:21;;;;;;;79.20;17.70;;;-3274.40;98.80;;;;;;5001132;28;20418;-73
2022/11/21 03:48:47;;;;;;;83.35;16.77;;;-3274.40;98.90;;;;;;5007007;28;20104;-74
2022/11/21 03:51:12;;;;;;;50.92;16.35;;;-3274.40;98.90;;;;;;5009808;28;20049;-73
2022/11/21 03:53:38;;;;;;;62.42;18.23;;;-3274.40;98.80;;;;;;5007935;28;20038;-73
2022/11/21 03:56:03;;;;;;;49.42;16.75;;;-3274.40;98.90;;;;;;5006380;28;20049;-74
2022/11/21 03:58:29;;;;;;;54.72;17.13;;;-3274.40;98.90;;;;;;5004321;28;20546;-74
2022/11/21 04:00:54;;;;;;;46.60;18.73;;;-3274.50;98.80;;;;;;5008283;28;20022;-74
2022/11/21 04:03:20;;;;;;;58.22;16.50;;;-3274.50;98.90;;;;;;5009321;28;20117;-73
2022/11/21 04:05:45;;;;;;;50.38;16.27;;;-3274.40;98.70;;;;;;5008073;28;20065;-73
2022/11/21 04:08:11;;;;;;;65.15;17.77;;;-3274.40;98.80;;;;;;4998091;28;20030;-73
2022/11/21 04:10:36;;;;;;;49.83;17.35;;;-3274.40;98.70;;;;;;5009081;28;20360;-73
2022/11/21 04:13:02;;;;;;;49.47;17.50;;;-3274.40;98.90;;;;;;5004134;28;20740;-74
2022/11/21 04:15:27;;;;;;;54.35;17.92;;;-3274.50;98.90;;;;;;5006055;28;20049;-73
2022/11/21 04:17:53;;;;;;;50.13;17.50;;;-3274.40;98.80;;;;;;5007838;28;20053;-74
2022/11/21 04:20:18;;;;;;;44.22;17.95;;;-3274.40;98.80;;;;;;4984213;28;20128;-73
2022/11/21 04:22:43;;;;;;;38.97;17.83;;;-3274.50;98.90;;;;;;5004081;28;20501;-74
2022/11/21 04:25:09;;;;;;;43.97;17.25;;;-3274.50;99.00;;;;;;4990309;28;20046;-74
2022/11/21 04:27:34;;;;;;;81.32;17.17;;;-3274.50;98.90;;;;;;5019978;28;20033;-73
2022/11/21 04:30:00;;;;;;;56.75;16.77;;;-3274.40;98.70;;;;;;5004116;28;20508;-73
2022/11/21 04:32:26;;;;;;;110.78;18.75;;;-3274.40;98.80;;;;;;5008566;28;20072;-73
2022/11/21 04:34:51;;;;;;;86.90;17.33;;;-3274.40;98.80;;;;;;4981698;28;20033;-73
2022/11/21 04:37:16;;;;;;;45.92;17.40;;;-3274.30;98.80;;;;;;5005673;28;20452;-73
2022/11/21 04:39:42;;;;;;;53.75;18.20;;;-3274.30;98.80;;;;;;5007393;28;20026;-73
2022/11/21 04:42:07;;;;;;;73.82;18.75;;;-3274.40;99.00;;;;;;4988831;28;20080;-73
2022/11/21 04:44:33;;;;;;;87.68;18.77;;;-3274.40;98.90;;;;;;5005476;28;20132;-73
2022/11/21 04:46:59;;;;;;;48.53;17.90;;;-3274.30;98.80;;;;;;5010420;28;20327;-73
2022/11/21 04:49:24;;;;;;;106.88;18.88;;;-3274.40;98.90;;;;;;5006324;28;20096;-73
2022/11/21 04:51:50;;;;;;;84.65;17.70;;;-3274.30;98.80;;;;;;5006230;28;20121;-73
2022/11/21 04:54:15;;;;;;;65.07;18.17;;;-3274.30;98.90;;;;;;4989226;28;20026;-73
2022/11/21 04:56:41;;;;;;;135.80;20.38;;;-3274.30;98.90;;;;;;5004083;28;20117;-73
2022/11/21 04:59:06;;;;;;;69.18;17.92;;;-3274.30;98.90;;;;;;5003188;28;20022;-73
2022/11/21 05:01:32;;;;;;;63.33;18.38;;;-3274.30;98.90;;;;;;4999910;28;20030;-74
2022/11/21 05:03:57;;;;;;;63.28;18.90;;;-3274.40;99.00;;;;;;5002707;28;20133;-73
2022/11/21 05:06:23;;;;;;;72.05;19.33;;;-3274.40;98.90;;;;;;5002420;28;20087;-73
2022/11/21 05:08:48;;;;;;;56.88;17.63;;;-3274.30;98.80;;;;;;5006049;28;20119;-73
2022/11/21 05:13:58;;;;;;;116.20;18.98;;;-3274.30;98.70;;;;;;5004234;28;20121;-73
2022/11/21 05:16:23;;;;;;;85.60;17.48;;;-3274.20;98.70;;;;;;5002560;28;20406;-73
2022/11/21 05:18:48;;;;;;;80.63;17.60;;;-3274.20;98.70;;;;;;5010032;28;20034;-73
2022/11/21 05:21:14;;;;;;;58.35;17.60;;;-3274.20;98.80;;;;;;5000735;28;20029;-73
2022/11/21 05:23:39;;;;;;;62.40;18.45;;;-3274.20;98.80;;;;;;4994511;28;20041;-73
2022/11/21 05:26:05;;;;;;;55.65;17.60;;;-3274.20;98.90;;;;;;4999213;28;20544;-73
2022/11/21 05:28:30;;;;;;;53.33;17.25;;;-3274.20;98.90;;;;;;4988196;28;20109;-79
2022/11/21 05:30:56;;;;;;;82.75;18.05;;;-3274.30;98.80;;;;;;5003408;28;20481;-76
2022/11/21 05:33:21;;;;;;;65.32;17.77;;;-3274.20;98.70;;;;;;4997990;28;20080;-75
2022/11/21 05:35:47;;;;;;;73.22;18.23;;;-3274.00;98.60;;;;;;4999281;28;20032;-75
2022/11/21 05:38:12;;;;;;;77.45;18.20;;;-3274.00;98.60;;;;;;4998112;28;20041;-75
2022/11/21 05:40:38;;;;;;;52.80;16.50;;;-3274.10;98.70;;;;;;4996412;28;20046;-75
2022/11/21 05:45:49;;;;;;;44.60;15.98;;;-3274.10;98.70;;;;;;5005321;28;20409;-75
2022/11/21 05:48:14;;;;;;;55.20;16.98;;;-3274.10;98.80;;;;;;5006905;28;20037;-75
2022/11/21 05:50:40;;;;;;;53.15;16.63;;;-3274.10;98.70;;;;;;5008328;28;20049;-75
2022/11/21 05:53:05;;;;;;;57.42;16.27;;;-3274.00;98.60;;;;;;5008280;28;20029;-75
2022/11/21 05:55:33;;;;;;;73.30;17.77;;;-3274.00;98.50;;;;;;5004454;28;20042;-75
2022/11/21 05:57:59;;;;;;;56.67;16.30;;;-3273.90;98.50;;;;;;5002581;28;20030;-75
2022/11/21 06:00:25;;;;;;;79.20;16.80;;;-3273.80;98.40;;;;;;5005330;28;20084;-74
2022/11/21 06:05:34;;;;;;;48.92;15.32;;;-3273.90;98.70;;;;;;5011494;28;20044;-75
2022/11/21 06:07:59;;;;;;;47.05;15.75;;;-3273.90;98.50;;;;;;5008008;28;20037;-75
2022/11/21 06:10:25;;;;;;;57.88;16.35;;;-3273.90;98.60;;;;;;5008305;28;20377;-75
2022/11/21 06:12:50;;;;;;;47.70;16.48;;;-3273.90;98.60;;;;;;5007166;28;20030;-75
2022/11/21 06:15:16;;;;;;;45.95;17.15;;;-3273.80;98.50;;;;;;5005078;28;20113;-75
2022/11/21 06:17:41;;;;;;;48.03;15.88;;;-3273.80;98.50;;;;;;5012017;28;20038;-75
2022/11/21 06:20:07;;;;;;;47.40;18.40;;;-3273.80;98.50;;;;;;5010004;28;20026;-75
2022/11/21 06:22:33;;;;;;;56.22;16.67;;;-3273.80;98.60;;;;;;5008062;28;20466;-75
2022/11/21 06:24:58;;;;;;;61.13;17.05;;;-3273.80;98.60;;;;;;5006507;28;20037;-78
2022/11/21 06:27:24;;;;;;;38.38;16.73;;;-3273.80;98.50;;;;;;5007191;28;20048;-75
2022/11/21 06:29:49;;;;;;;43.15;17.73;;;-3273.90;98.60;;;;;;4999833;28;20113;-75
2022/11/21 06:32:15;;;;;;;46.80;16.55;;;-3273.80;98.50;;;;;;5005045;28;20638;-76
2022/11/21 06:34:40;;;;;;;45.95;16.77;;;-3273.90;98.50;;;;;;4991891;28;20025;-76
2022/11/21 06:37:06;;;;;;;60.78;16.73;;;-3273.90;98.60;;;;;;5003808;28;20427;-75
2022/11/21 06:39:31;;;;;;;64.60;16.33;;;-3273.80;98.50;;;;;;5008341;28;20032;-75
2022/11/21 06:41:57;;;;;;;43.85;15.25;;;-3273.80;98.40;;;;;;4997412;28;20030;-75
2022/11/21 06:44:23;;;;;;;47.83;15.40;;;-3273.70;98.40;;;;;;4998569;28;20403;-75
2022/11/21 06:46:48;;;;;;;60.38;16.70;;;-3273.80;98.50;;;;;;5011979;28;20115;-75
2022/11/21 06:49:14;;;;;;;59.83;15.10;;;-3273.80;98.50;;;;;;4989741;28;20033;-75
2022/11/21 06:51:39;;;;;;;90.18;17.65;;;-3273.70;98.30;;;;;;5006977;28;20030;-75
2022/11/21 06:54:05;;;;;;;46.05;14.73;;;-3273.70;98.40;;;;;;4998404;28;20382;-75
2022/11/21 06:56:31;;;;;;;86.47;14.95;;;-3273.60;98.40;;;;;;5009701;28;20064;-76
2022/11/21 06:58:57;;;;;;;60.53;15.70;;;-3273.70;98.50;;;;;;5009015;28;20032;-75
2022/11/21 07:01:23;;;;;;;38.80;14.82;;;-3273.70;98.50;;;;;;5004544;28;20454;-75
2022/11/21 07:03:49;;;;;;;48.13;14.02;;;-3273.70;98.40;;;;;;5005908;28;20040;-75
2022/11/21 07:06:14;;;;;;;51.35;15.43;;;-3273.70;98.50;;;;;;5005743;28;20545;-75
2022/11/21 07:08:40;;;;;;;36.15;14.90;;;-3273.80;98.50;;;;;;4988807;28;20041;-76
2022/11/21 07:11:07;;;;;;;32.22;14.52;;;-3273.80;98.50;;;;;;5007554;28;20478;-75
2022/11/21 07:13:33;;;;;;;33.05;14.40;;;-3273.80;98.50;;;;;;5001795;28;20151;-75
2022/11/21 07:16:02;;;;;;;41.58;14.02;;;-3273.80;98.40;;;;;;5010631;28;20026;-75
2022/11/21 07:18:27;;;;;;;28.20;13.70;;;-3273.80;98.30;;;;;;5008422;28;20041;-75
2022/11/21 07:21:00;;;;;;;30.05;14.10;;;-3273.80;98.30;;;;;;5007398;28;20351;-75
2022/11/21 07:23:26;;;;;;;32.13;14.23;;;-3273.80;98.40;;;;;;5006753;28;20041;-75
2022/11/21 07:25:52;;;;;;;35.33;13.55;;;-3273.70;98.30;;;;;;5010071;28;20197;-75
2022/11/21 07:28:17;;;;;;;33.78;13.63;;;-3273.80;98.40;;;;;;5001502;28;20069;-75
2022/11/21 07:30:43;;;;;;;27.13;13.30;;;-3273.80;98.30;;;;;;5008778;28;20491;-74
2022/11/21 07:33:08;;;;;;;29.17;12.80;;;-3273.70;98.30;;;;;;5009982;28;20033;-75
2022/11/21 07:35:35;;;;;;;31.00;13.38;;;-3273.80;98.20;;;;;;5008546;28;20109;-75
2022/11/21 07:38:01;;;;;;;26.20;13.40;;;-3273.80;98.30;;;;;;5006684;28;20037;-75
2022/11/21 07:40:27;;;;;;;30.05;14.65;;;-3273.90;98.40;;;;;;5007818;28;20022;-75
2022/11/21 07:42:53;;;;;;;39.15;13.57;;;-3273.90;98.20;;;;;;5008163;28;20088;-75
2022/11/21 07:45:18;;;;;;;31.25;14.55;;;-3273.80;98.10;;;;;;5006803;28;20034;-75
2022/11/21 07:47:44;;;;;;;29.88;12.95;;;-3273.90;98.20;;;;;;5006728;28;20366;-75
2022/11/21 07:50:10;;;;;;;29.20;13.85;;;-3274.00;98.20;;;;;;5005888;28;20045;-75
2022/11/21 07:52:36;;;;;;;31.48;13.52;;;-3274.00;98.10;;;;;;4999790;28;20084;-75
2022/11/21 07:55:03;;;;;;;27.77;14.00;;;-3274.00;98.10;;;;;;5006387;28;20053;-75
2022/11/21 07:57:29;;;;;;;33.90;14.70;;;-3274.10;98.20;;;;;;5017940;28;20033;-75
2022/11/21 07:59:55;;;;;;;27.90;13.65;;;-3274.10;98.20;;;;;;5006879;28;20426;-75
2022/11/21 08:02:22;;;;;;;26.10;14.32;;;-3274.10;97.90;;;;;;5002055;28;20092;-75
2022/11/21 08:04:47;;;;;;;28.35;14.57;;;-3274.10;97.90;;;;;;5007954;28;20185;-75
2022/11/21 08:07:17;;;;;;;31.60;12.32;;;-3274.10;98.00;;;;;;4997414;28;20026;-75
2022/11/21 08:09:43;;;;;;;30.60;13.23;;;-3274.10;97.80;;;;;;4996954;28;20381;-75
2022/11/21 08:12:09;;;;;;;28.80;14.13;;;-3274.10;98.10;;;;;;4998957;28;20048;-75
2022/11/21 08:14:36;;;;;;;29.45;14.13;;;-3274.20;98.00;;;;;;5005187;28;20037;-75
2022/11/21 08:17:01;;;;;;;31.55;15.27;;;-3274.30;98.00;;;;;;5004424;28;20423;-75
2022/11/21 08:19:27;;;;;;;30.27;14.80;;;-3274.40;98.00;;;;;;4995630;28;20034;-75
2022/11/21 08:21:52;;;;;;;29.17;13.85;;;-3274.50;98.00;;;;;;4997809;28;20080;-75
2022/11/21 08:24:18;;;;;;;31.08;15.85;;;-3274.50;98.00;;;;;;4996043;28;20081;-75
2022/11/21 08:26:44;;;;;;;37.20;15.90;;;-3274.50;97.90;;;;;;5001094;28;20033;-75
2022/11/21 08:29:10;;;;;;;29.33;14.93;;;-3274.60;98.00;;;;;;5001027;28;20033;-75
2022/11/21 08:31:37;;;;;;;30.20;14.50;;;-3274.80;98.10;;;;;;5005554;28;20034;-75
2022/11/21 08:34:03;;;;;;;37.97;15.00;;;-3274.70;97.70;;;;;;4990758;28;20374;-75
2022/11/21 08:36:28;;;;;;;32.80;15.57;;;-3274.90;97.80;;;;;;5002247;28;20033;-75
2022/11/21 08:38:54;;;;;;;32.92;14.75;;;-3275.00;97.90;;;;;;5000255;28;20089;-75
2022/11/21 08:44:05;;;;;;;33.40;15.88;;;-3275.00;97.70;;;;;;4992924;28;20393;-73
2022/11/21 08:46:32;;;;;;;38.05;14.90;;;-3275.10;97.70;;;;;;4999694;28;20042;-73
2022/11/21 08:48:58;;;;;;;40.15;17.13;;;-3275.10;97.50;;;;;;5008229;28;20026;-73
2022/11/21 08:51:23;;;;;;;34.83;15.55;;;-3275.30;97.80;;;;;;5007709;28;20072;-73
2022/11/21 08:53:49;;;;;;;28.52;15.82;;;-3275.50;97.60;;;;;;4985431;28;20029;-73
2022/11/21 08:56:14;;;;;;;33.47;15.73;;;-3275.60;97.50;;;;;;5008706;28;20045;-73
2022/11/21 08:58:40;;;;;;;30.45;15.90;;;-3275.70;97.40;;;;;;5002168;28;20038;-73
2022/11/21 09:01:05;;;;;;;30.95;16.13;;;-3275.70;97.20;;;;;;5002156;28;20385;-74
2022/11/21 09:03:31;;;;;;;33.50;16.58;;;-3275.80;96.90;;;;;;5005100;28;20064;-73
2022/11/21 09:05:58;;;;;;;27.77;15.32;;;-3275.70;96.60;;;;;;5004580;28;20339;-72
2022/11/21 09:08:24;;;;;;;30.13;16.35;;;-3275.90;97.00;;;;;;5004368;28;20451;-72
2022/11/21 09:10:49;;;;;;;27.50;14.70;;;-3275.80;96.60;;;;;;5000485;28;20022;-74
2022/11/21 09:13:15;;;;;;;35.03;15.68;;;-3275.80;96.30;;;;;;5002457;28;20034;-74
2022/11/21 09:18:25;;;;;;;28.25;14.63;;;-3275.60;96.60;;;;;;5002131;28;20033;-73
2022/11/21 09:20:50;;;;;;;27.10;14.95;;;-3275.70;96.70;;;;;;4997985;28;20030;-74
2022/11/21 09:23:16;;;;;;;36.15;18.77;;;-3275.60;96.70;;;;;;5002250;28;20052;-74
2022/11/21 09:25:42;;;;;;;39.35;19.23;;;-3275.70;96.70;;;;;;5004514;28;20133;-73
2022/11/21 09:28:10;;;;;;;36.15;18.90;;;-3275.60;96.30;;;;;;5003374;28;20026;-74
2022/11/21 09:30:35;;;;;;;33.45;18.25;;;-3275.60;96.70;;;;;;5014205;28;20033;-74
2022/11/21 09:33:03;;;;;;;30.30;17.25;;;-3275.70;96.80;;;;;;5008070;28;20042;-74
2022/11/21 09:35:29;;;;;;;30.83;16.73;;;-3275.80;96.80;;;;;;5004986;28;20034;-73
2022/11/21 09:37:54;;;;;;;34.00;17.27;;;-3275.70;96.60;;;;;;5000033;28;20120;-74
2022/11/21 09:40:21;;;;;;;31.50;16.77;;;-3275.70;96.60;;;;;;5007433;28;20033;-74
2022/11/21 09:43:16;;;;;;;30.75;17.13;;;-3275.70;96.70;;;;;;5004144;28;20109;-74
2022/11/21 09:45:51;;;;;;;32.63;17.88;;;-3275.70;96.50;;;;;;5003077;28;20436;-74
2022/11/21 09:48:23;;;;;;;31.48;16.08;;;-3275.90;96.70;;;;;;5007115;28;20042;-74
2022/11/21 09:50:57;;;;;;;28.77;15.65;;;-3275.90;96.60;;;;;;5005530;28;20014;-74
2022/11/21 09:53:55;;;;;;;30.42;16.88;;;-3276.00;96.60;;;;;;5006843;28;20040;-74
2022/11/21 09:56:22;;;;;;;35.13;17.77;;;-3276.10;96.50;;;;;;4985133;28;20100;-74
2022/11/21 09:59:05;;;;;;;36.10;17.80;;;-3276.20;96.50;;;;;;5004136;28;20034;-74
2022/11/21 10:01:31;;;;;;;36.70;19.10;;;-3276.40;96.50;;;;;;5004602;28;20025;-73
2022/11/21 10:03:59;;;;;;;38.70;20.40;;;-3276.70;96.60;;;;;;5008313;28;20026;-74
2022/11/21 10:06:41;;;;;;;44.88;24.27;;;-3276.70;96.00;;;;;;5003930;28;20095;-74
2022/11/21 10:09:15;;;;;;;39.13;20.15;;;0.00;96.20;;;;;;5002543;28;20332;-74
2022/11/21 10:15:12;;;;;;;37.08;18.42;;;0.10;95.80;;;;;;5005106;28;20163;-73
2022/11/21 10:17:48;;;;;;;34.50;17.95;;;0.20;95.40;;;;;;4926683;29;20488;-73
2022/11/21 10:20:40;;;;;;;34.30;17.52;;;0.40;95.20;;;;;;4988176;28;20049;-73
2022/11/21 10:23:23;;;;;;;35.85;18.42;;;0.50;95.30;;;;;;5005802;28;20034;-74
2022/11/21 10:26:31;;;;;;;34.28;17.48;;;0.30;94.80;;;;;;4995651;28;20030;-73
2022/11/21 10:29:11;;;;;;;30.33;16.73;;;0.20;94.80;;;;;;5000643;28;20029;-74
2022/11/21 10:31:39;;;;;;;29.58;16.67;;;0.20;94.80;;;;;;5007130;28;20034;-73
2022/11/21 10:34:12;;;;;;;30.80;16.92;;;0.10;94.80;;;;;;5012740;28;20034;-73
2022/11/21 10:36:40;;;;;;;27.08;15.68;;;0.10;94.90;;;;;;5009316;28;20044;-73
2022/11/21 10:39:39;;;;;;;26.65;15.95;;;0.20;95.10;;;;;;5011189;28;20394;-73
2022/11/21 10:42:16;;;;;;;25.77;15.02;;;0.20;95.10;;;;;;4993533;28;20137;-74
2022/11/21 10:47:36;;;;;;;28.88;15.30;;;0.40;95.10;;;;;;5007846;28;20397;-74
2022/11/21 10:50:11;;;;;;;26.73;15.23;;;0.50;95.10;;;;;;5007556;28;20029;-75
2022/11/21 10:52:39;;;;;;;33.63;18.67;;;0.90;95.40;;;;;;5009098;28;20034;-75
2022/11/21 10:55:09;;;;;;;49.80;23.27;;;1.10;94.90;;;;;;5009814;28;20034;-75
2022/11/21 10:57:49;;;;;;;30.95;17.10;;;1.20;94.10;;;;;;5005554;28;20109;-74
2022/11/21 11:00:19;;;;;;;31.40;17.27;;;1.50;93.90;;;;;;4988343;28;20872;-75
2022/11/21 11:02:54;;;;;;;27.88;16.33;;;1.70;93.60;;;;;;5008445;28;20026;-74
2022/11/21 11:05:27;;;;;;;24.88;14.65;;;2.10;93.20;;;;;;5007328;28;20026;-75
2022/11/21 11:08:00;;;;;;;22.15;13.05;;;2.10;92.70;;;;;;5007488;28;20077;-75
2022/11/21 11:10:26;;;;;;;21.30;13.48;;;2.10;92.70;;;;;;5010467;28;20375;-75
2022/11/21 11:15:52;;;;;;;19.08;11.45;;;1.80;92.40;;;;;;5008717;28;20029;-75
2022/11/21 11:18:18;;;;;;;;;;;1.60;92.40;;;;;;5008531;28;20302;-75
2022/11/21 11:20:44;;;;;;;17.85;10.27;;;1.60;92.30;;;;;;5007027;28;19913;-75
2022/11/21 11:23:19;;;;;;;18.58;10.77;;;1.60;92.70;;;;;;5008001;28;20508;-75
2022/11/21 11:25:47;;;;;;;18.70;11.73;;;1.60;92.50;;;;;;5002768;28;20045;-75
2022/11/21 11:28:12;;;;;;;16.42;10.30;;;1.70;92.70;;;;;;5005117;28;20041;-75
2022/11/21 11:30:39;;;;;;;18.23;10.82;;;1.70;92.20;;;;;;5011613;28;20408;-74
2022/11/21 11:33:26;;;;;;;18.80;10.55;;;1.70;92.20;;;;;;4988977;28;20076;-75
2022/11/21 11:35:52;;;;;;;18.10;10.18;;;2.00;92.50;;;;;;5002141;28;20038;-75
2022/11/21 11:38:22;;;;;;;15.68;9.85;;;2.30;92.30;;;;;;4990975;28;20034;-74
2022/11/21 11:40:47;;;;;;;18.20;10.95;;;2.60;91.90;;;;;;5008762;28;20053;-75
2022/11/21 11:49:26;;;;;;;17.13;9.45;;;2.50;90.50;;;;;;5008648;28;20103;-75
2022/11/21 11:52:01;;;;;;;13.43;8.32;;;2.60;90.90;;;;;;5006818;28;20069;-75
2022/11/21 11:54:32;;;;;;;15.93;9.18;;;2.80;90.90;;;;;;5005243;28;20480;-75
2022/11/21 11:56:58;;;;;;;15.40;8.52;;;2.70;89.80;;;;;;5004690;28;20041;-75
2022/11/21 11:59:27;;;;;;;16.92;8.82;;;2.90;90.40;;;;;;5002889;28;20059;-74
2022/11/21 12:01:58;;;;;;;13.60;8.48;;;3.00;89.90;;;;;;5003605;28;20038;-75
2022/11/21 12:04:28;;;;;;;15.65;7.85;;;2.90;89.00;;;;;;5004314;28;20052;-75
2022/11/21 12:07:05;;;;;;;13.60;8.10;;;3.20;89.00;;;;;;4994384;28;20042;-75
2022/11/21 12:09:33;;;;;;;13.23;8.18;;;3.10;88.70;;;;;;5001247;28;20103;-75
2022/11/21 12:12:24;;;;;;;13.23;7.35;;;3.30;88.20;;;;;;5007750;28;20022;-75
2022/11/21 12:18:08;;;;;;;10.95;6.43;;;3.50;86.70;;;;;;5000476;28;20105;-75
2022/11/21 12:20:42;;;;;;;12.32;5.97;;;3.90;86.10;;;;;;5001007;28;20096;-75
2022/11/21 12:23:09;;;;;;;10.48;6.15;;;4.00;83.90;;;;;;5000325;28;20145;-75
2022/11/21 12:25:51;;;;;;;11.43;6.32;;;3.90;84.30;;;;;;5006347;28;20099;-75
2022/11/21 12:28:22;;;;;;;;;;;4.30;85.70;;;;;;4996004;28;20041;-75
2022/11/21 12:31:05;;;;;;;10.50;6.50;;;4.10;84.50;;;;;;5001148;28;19906;-75
2022/11/21 12:33:37;;;;;;;20.60;9.27;;;4.20;85.10;;;;;;4985155;28;20328;-75
2022/11/21 12:36:31;;;;;;;20.73;9.52;;;4.10;83.50;;;;;;5003280;28;20045;-75
2022/11/21 12:39:17;;;;;;;10.93;6.13;;;4.10;82.70;;;;;;4999597;28;20091;-74
2022/11/21 12:45:17;;;;;;;8.50;5.05;;;3.90;84.00;;;;;;5000103;28;20044;-74
2022/11/21 12:54:32;;;;;;;31.88;17.00;;;3.90;84.60;;;;;;5003729;28;20504;-74